Weather History for St. George, AK

Change the Weather History Date:

Sunday, January 26, 2014

  Actual Average Record
Temperature  
Mean Temperature 33 °F -  
Max Temperature 36 °F 28 °F 37 °F (2002)
Min Temperature 30 °F 21 °F 0 °F (2012)
Degree Days  
Heating Degree Days 32    
Moisture  
Dew Point 34 °F    
Average Humidity 99    
Maximum Humidity 100    
Minimum Humidity 93    
Precipitation  
Precipitation 0.39 in - - ()
Sea Level Pressure  
Sea Level Pressure 29.07 in    
Wind  
Wind Speed 19 mph (NNE)    
Max Wind Speed 23 mph    
Max Gust Speed -    
Visibility 4 miles    
Events Fog , Rain , Snow    
Averages and records for this station are not official NWS values.
T = Trace of Precipitation, MM = Missing Value Source: NWS Daily Summary

Daily Weather History Graph

Daily Weather History Graph

Search for Another Location

Airport:

Trip Planner

Search our weather history database for the weather conditions in past years. The results will help you decide how hot, cold, wet, or windy it might be!

Date:

Astronomy

Jan. 26, 2014 Rise Set
Actual Time 10:26 AM AKST 6:36 PM AKST
Civil Twilight 9:43 AM AKST 7:19 PM AKST
Nautical Twilight 8:56 AM AKST 8:06 PM AKST
Astronomical Twilight 8:12 AM AKST 8:50 PM AKST
Moon 6:24 AM AKST (1/26) 2:30 PM AKST (1/26)
Length of Visible Light 9h 36m
Length of Day
8h 10m
Waning Crescent, 22% of the Moon is Illuminated
Jan 26
Waning Crescent
Jan 30
New
Feb 6
First Quarter
Feb 14
Full
Feb 22
Last Quarter

Hourly Weather History & Observations

Time (AKST) Temp. Windchill Dew Point Humidity Pressure Visibility Wind Dir Wind Speed Gust Speed Precip Events Conditions
12:04 AM 30.9 °F - 30.9 °F 100% 29.18 in 1.2 mi North - - 0.00 in Snow Light Snow
12:14 AM 30.9 °F - 30.9 °F 100% 29.17 in 1.2 mi North - - 0.01 in Snow Light Snow
12:32 AM 30.9 °F - 30.9 °F 100% 29.17 in 1.0 mi North - - 0.01 in Snow Light Snow
12:51 AM 32.0 °F - 32.0 °F 100% 29.17 in 1.5 mi North - - 0.02 in Snow Light Snow
12:53 AM 32.0 °F - 32.0 °F 100% 29.13 in 1.5 mi North - - 0.02 in Snow Light Snow
1:15 AM 32.0 °F - 32.0 °F 100% 29.14 in 1.8 mi North - - 0.01 in Snow Light Snow
1:24 AM 32.0 °F - 32.0 °F 100% 29.13 in 2.5 mi North - - 0.01 in Snow Light Snow
1:32 AM 32.0 °F - 32.0 °F 100% 29.14 in 3.0 mi North - - 0.01 in Snow Light Snow
1:53 AM 32.0 °F - 32.0 °F 100% 29.08 in 3.0 mi North - - 0.01 in Snow Light Snow
2:39 AM 32.0 °F 19.5 °F 32.0 °F 100% 29.12 in 2.5 mi North 21.9 mph - 0.00 in Snow Light Snow
2:49 AM 32.0 °F 19.2 °F 32.0 °F 100% 29.11 in 1.2 mi North 23.0 mph - 0.00 in Snow Light Snow
2:53 AM 33.1 °F 20.6 °F 33.1 °F 100% 29.08 in 1.2 mi North 23.0 mph - 0.00 in Snow Light Snow
3:01 AM 33.1 °F 20.6 °F 33.1 °F 100% 29.11 in 1.0 mi North 23.0 mph - 0.00 in Snow Light Snow
3:11 AM 33.1 °F 21.2 °F 33.1 °F 100% 29.10 in 1.2 mi North 20.7 mph - 0.00 in Snow Light Snow
3:34 AM 33.1 °F 23.0 °F 33.1 °F 100% 29.10 in 1.2 mi North 15.0 mph - 0.00 in   Overcast
3:41 AM 34.0 °F 23.0 °F 34.0 °F 100% 29.09 in 1.0 mi NNE 18.4 mph - 0.00 in Snow Light Snow
3:48 AM 33.8 °F 22.8 °F 33.8 °F 100% 29.09 in 1.5 mi NNE 18.4 mph - 0.00 in Snow Light Snow
3:53 AM 34.0 °F 23.0 °F 34.0 °F 100% 29.05 in 1.8 mi NNE 18.4 mph - 0.00 in Snow Light Snow
4:00 AM 34.0 °F 23.0 °F 34.0 °F 100% 29.08 in 2.0 mi NNE 18.4 mph - 0.00 in Snow Light Snow
4:12 AM 34.0 °F 23.0 °F 34.0 °F 100% 29.08 in 2.5 mi NNE 18.4 mph - 0.00 in Snow Light Snow
4:27 AM 35.1 °F 24.8 °F 35.1 °F 100% 29.08 in 1.5 mi NNE 17.3 mph - 0.00 in Snow Light Snow
4:35 AM 34.0 °F 23.8 °F 34.0 °F 100% 29.08 in 0.8 mi NNE 16.1 mph - 0.00 in Snow Light Snow
4:53 AM 34.0 °F 24.2 °F 34.0 °F 100% 29.04 in 0.5 mi NNE 15.0 mph - 0.00 in Fog , Snow Light Snow
5:19 AM 34.0 °F 23.8 °F 34.0 °F 100% 29.06 in 1.2 mi NNE 16.1 mph - 0.02 in Rain Rain
5:29 AM 34.0 °F 23.8 °F 34.0 °F 100% 29.06 in - NNE 16.1 mph - 0.04 in Rain Rain
5:40 AM 34.0 °F 23.8 °F 34.0 °F 100% 29.05 in 4.0 mi NNE 16.1 mph - 0.05 in Snow Light Snow
5:53 AM 34.0 °F 23.4 °F 34.0 °F 100% 29.02 in 5.0 mi NNE 17.3 mph - 0.06 in Rain Rain
6:02 AM 34.0 °F 23.0 °F 34.0 °F 100% 29.05 in 5.0 mi NNE 18.4 mph - 0.01 in Snow Light Snow
6:53 AM 34.0 °F 23.8 °F 34.0 °F 100% 28.99 in 4.0 mi NNE 16.1 mph - 0.04 in Snow Light Snow
7:53 AM 34.0 °F - 34.0 °F 100% 29.01 in 6.0 mi North - - 0.06 in Rain Light Rain
8:53 AM 34.0 °F - 34.0 °F 100% 28.97 in 4.0 mi North - - 0.04 in Snow Light Snow
9:53 AM 34.0 °F 23.0 °F 34.0 °F 100% 28.97 in - NNE 18.4 mph - 0.03 in Snow Light Snow
10:53 AM 34.0 °F - 34.0 °F 100% 28.98 in 4.0 mi North - - 0.09 in Rain Rain
11:53 AM 34.0 °F - 34.0 °F 100% 29.00 in 5.0 mi North - - 0.02 in Snow Light Snow
12:01 PM 34.0 °F - 34.0 °F 100% 29.03 in 5.0 mi North - - 0.00 in Snow Light Snow
12:17 PM 34.0 °F - 34.0 °F 100% 29.03 in 2.0 mi North - - 0.00 in Snow Light Snow
12:41 PM 34.0 °F - 34.0 °F 100% 29.03 in 3.0 mi North - - 0.00 in   Overcast
12:51 PM 33.8 °F - 33.8 °F 100% 29.03 in 6.0 mi North - - 0.00 in   Overcast
12:53 PM 34.0 °F - 34.0 °F 100% 29.00 in 6.0 mi North - - 0.00 in   Overcast
1:02 PM 34.0 °F - 34.0 °F 100% 29.03 in 3.0 mi North - - N/A   Overcast
1:11 PM 34.0 °F - 34.0 °F 100% 29.03 in 2.5 mi North - - N/A   Overcast
1:21 PM 34.0 °F - 34.0 °F 100% 29.04 in 1.2 mi North - - N/A   Overcast
1:23 PM 34.0 °F - 34.0 °F 100% 29.04 in 1.0 mi North - - N/A   Overcast
1:33 PM 34.0 °F - 34.0 °F 100% 29.04 in 1.5 mi North - - N/A   Overcast
1:42 PM 35.1 °F - 35.1 °F 100% 29.04 in 3.0 mi North - - N/A   Overcast
1:53 PM 35.1 °F - 35.1 °F 100% 29.01 in 2.5 mi North - - N/A   Overcast
2:12 PM 35.1 °F - 35.1 °F 100% 29.05 in 4.0 mi North - - 0.01 in Rain Rain
2:21 PM 35.1 °F - 35.1 °F 100% 29.05 in 5.0 mi North - - 0.01 in   Overcast
2:30 PM 36.0 °F - 36.0 °F 100% 29.05 in 2.0 mi North - - 0.02 in Rain Rain
2:42 PM 36.0 °F - 36.0 °F 100% 29.05 in 4.0 mi North - - 0.02 in   Overcast
2:49 PM 35.6 °F - 35.6 °F 100% 29.05 in 5.0 mi North - - 0.02 in   Overcast
2:53 PM 36.0 °F - 36.0 °F 100% 29.02 in 9.0 mi North - - 0.02 in   Overcast
3:53 PM 36.0 °F - 34.0 °F 93% 29.04 in 10.0 mi North - - 0.00 in   Clear
4:53 PM 36.0 °F - 34.0 °F 93% 29.06 in 10.0 mi North - - N/A   Clear
5:53 PM 36.0 °F - 34.0 °F 93% 29.08 in 10.0 mi North - - N/A   Overcast
6:49 PM 35.6 °F - 33.8 °F 93% 29.14 in 7.0 mi North - - 0.00 in   Overcast
6:53 PM 35.1 °F - 34.0 °F 96% 29.11 in 7.0 mi North - - 0.00 in   Overcast
7:53 PM 36.0 °F - 35.1 °F 97% 29.13 in 10.0 mi North - - 0.00 in   Overcast
8:53 PM 35.1 °F - 35.1 °F 100% 29.15 in 8.0 mi North - - 0.00 in   Overcast
9:53 PM 36.0 °F - 35.1 °F 97% 29.15 in 10.0 mi North - - 0.00 in   Overcast
10:53 PM 36.0 °F 28.5 °F 35.1 °F 97% 29.16 in 10.0 mi East 10.4 mph - N/A   Mostly Cloudy
11:43 PM 36.0 °F 27.1 °F 35.1 °F 97% 29.21 in 8.0 mi NE 13.8 mph - N/A   Overcast
11:53 PM 35.1 °F 26.9 °F 35.1 °F 100% 29.18 in 8.0 mi ENE 11.5 mph - N/A   Overcast